createdAt,value
2022-08-26T00:00:08.963Z,31.20
2022-08-26T00:02:43.616Z,31.30
2022-08-26T00:05:11.642Z,31.20
2022-08-26T00:07:39.842Z,31.10
2022-08-26T00:10:13.051Z,31.10
2022-08-26T00:12:41.502Z,31.10
2022-08-26T00:15:12.231Z,31.30
2022-08-26T00:17:40.761Z,31.30
2022-08-26T00:20:11.627Z,31.40
2022-08-26T00:22:39.689Z,31.30
2022-08-26T00:25:10.160Z,31.20
2022-08-26T00:27:39.913Z,31.30
2022-08-26T00:30:11.660Z,31.40
2022-08-26T00:32:40.519Z,31.40
2022-08-26T00:35:13.113Z,31.30
2022-08-26T00:37:42.635Z,31.30
2022-08-26T00:40:17.223Z,31.10
2022-08-26T00:42:47.367Z,31.10
2022-08-26T00:45:17.562Z,31.00
2022-08-26T00:47:48.552Z,31.00
2022-08-26T00:50:22.332Z,30.90
2022-08-26T00:52:52.021Z,30.80
2022-08-26T00:55:24.794Z,30.90
2022-08-26T00:57:57.421Z,31.00
2022-08-26T01:00:30.607Z,31.00
2022-08-26T01:03:01.303Z,31.00
2022-08-26T01:05:30.392Z,30.90
2022-08-26T01:07:58.589Z,30.90
2022-08-26T01:10:31.200Z,31.00
2022-08-26T01:13:03.581Z,31.10
2022-08-26T01:15:35.392Z,30.70
2022-08-26T01:18:06.512Z,30.90
2022-08-26T01:20:41.896Z,31.00
2022-08-26T01:23:12.147Z,31.10
2022-08-26T01:25:48.256Z,31.00
2022-08-26T01:28:22.624Z,31.10
2022-08-26T01:30:52.949Z,31.30
2022-08-26T01:33:27.413Z,31.20
2022-08-26T01:35:57.624Z,30.80
2022-08-26T01:38:27.724Z,30.90
2022-08-26T01:41:00.667Z,30.70
2022-08-26T01:43:31.418Z,30.60
2022-08-26T01:46:01.205Z,30.90
2022-08-26T01:48:32.178Z,30.70
2022-08-26T01:51:01.982Z,30.50
2022-08-26T01:53:32.022Z,30.50
2022-08-26T01:56:02.741Z,30.10
2022-08-26T01:58:34.296Z,30.30
2022-08-26T02:01:03.170Z,30.30
2022-08-26T02:03:32.888Z,30.50
2022-08-26T02:06:03.897Z,30.70
2022-08-26T02:08:38.962Z,30.50
2022-08-26T02:11:07.694Z,30.60
2022-08-26T02:13:40.852Z,30.60
2022-08-26T02:16:09.798Z,30.70
2022-08-26T02:18:43.437Z,30.60
2022-08-26T02:21:12.924Z,30.70
2022-08-26T02:23:42.929Z,30.80
2022-08-26T02:26:17.106Z,30.70
2022-08-26T02:28:51.204Z,30.90
2022-08-26T02:31:19.877Z,30.80
2022-08-26T02:33:47.901Z,30.90
2022-08-26T02:36:20.829Z,30.50
2022-08-26T02:38:50.269Z,30.60
2022-08-26T02:41:21.989Z,30.60
2022-08-26T02:43:51.187Z,30.60
2022-08-26T02:46:27.675Z,30.50
2022-08-26T02:48:58.037Z,30.20
2022-08-26T02:51:26.265Z,30.20
2022-08-26T02:53:55.732Z,30.10
2022-08-26T02:56:23.740Z,30.10
2022-08-26T02:58:51.991Z,30.10
2022-08-26T03:01:24.019Z,30.20
2022-08-26T03:03:52.378Z,30.30
2022-08-26T03:06:22.332Z,30.30
2022-08-26T03:08:50.321Z,30.40
2022-08-26T03:11:19.981Z,30.30
2022-08-26T03:13:48.024Z,30.40
2022-08-26T03:16:19.326Z,30.10
2022-08-26T03:18:52.418Z,30.20
2022-08-26T03:21:21.175Z,30.10
2022-08-26T03:23:49.658Z,29.80
2022-08-26T03:26:19.461Z,29.90
2022-08-26T03:29:05.844Z,29.90
2022-08-26T03:31:34.336Z,29.80
2022-08-26T03:34:02.609Z,29.50
2022-08-26T03:36:31.136Z,29.80
2022-08-26T03:38:59.780Z,29.90
2022-08-26T03:41:29.154Z,29.90
2022-08-26T03:44:01.506Z,30.00
2022-08-26T03:46:31.430Z,29.80
2022-08-26T03:48:59.498Z,29.70
2022-08-26T03:51:27.881Z,29.70
2022-08-26T03:53:57.123Z,29.70
2022-08-26T03:56:25.350Z,29.90
2022-08-26T03:58:58.126Z,29.80
2022-08-26T04:01:26.703Z,29.80
2022-08-26T04:04:01.260Z,29.70
2022-08-26T04:06:31.859Z,30.00
2022-08-26T04:09:02.402Z,29.80
2022-08-26T04:11:35.813Z,30.10
2022-08-26T04:14:17.480Z,30.10
2022-08-26T04:16:46.808Z,30.00
2022-08-26T04:19:17.071Z,30.00
2022-08-26T04:21:46.371Z,30.10
2022-08-26T04:24:16.509Z,30.10
2022-08-26T04:26:45.698Z,29.80
2022-08-26T04:29:18.040Z,30.10
2022-08-26T04:31:46.871Z,29.80
2022-08-26T04:34:16.642Z,30.00
2022-08-26T04:36:45.269Z,30.00
2022-08-26T04:39:16.715Z,30.20
2022-08-26T04:41:47.562Z,30.20
2022-08-26T04:44:18.689Z,30.50
2022-08-26T04:46:46.731Z,30.50
2022-08-26T04:49:15.096Z,30.50
2022-08-26T04:51:43.947Z,30.70
2022-08-26T04:54:14.168Z,30.70
2022-08-26T04:56:46.421Z,30.60
2022-08-26T04:59:19.137Z,30.60
2022-08-26T05:01:49.029Z,30.70
2022-08-26T05:04:19.120Z,31.20
2022-08-26T05:06:48.240Z,31.50
2022-08-26T05:09:20.558Z,31.80
2022-08-26T05:11:51.897Z,31.80
2022-08-26T05:14:23.347Z,31.90
2022-08-26T05:16:51.701Z,32.30
2022-08-26T05:19:21.176Z,32.60
2022-08-26T05:21:49.520Z,32.90
2022-08-26T05:24:18.630Z,33.10
2022-08-26T05:26:48.033Z,33.20
2022-08-26T05:29:16.754Z,33.40
2022-08-26T05:31:46.369Z,33.60
2022-08-26T05:34:15.612Z,33.70
2022-08-26T05:36:43.630Z,33.80
2022-08-26T05:39:11.660Z,33.80
2022-08-26T05:41:42.885Z,33.90
2022-08-26T05:44:16.151Z,33.90
2022-08-26T05:46:46.030Z,34.10
2022-08-26T05:49:15.894Z,33.90
2022-08-26T05:51:46.406Z,34.20
2022-08-26T05:54:22.408Z,34.20
2022-08-26T05:56:51.690Z,34.30
2022-08-26T05:59:23.954Z,34.40
2022-08-26T06:01:54.840Z,34.50
2022-08-26T06:04:24.883Z,34.60
2022-08-26T06:06:56.347Z,34.60
2022-08-26T06:09:24.726Z,34.60
2022-08-26T06:11:52.827Z,34.60
2022-08-26T06:14:21.701Z,34.60
2022-08-26T06:16:49.738Z,34.70
2022-08-26T06:19:20.041Z,34.60
2022-08-26T06:21:54.711Z,34.40
2022-08-26T06:24:40.803Z,34.60
2022-08-26T06:27:13.512Z,34.60
2022-08-26T06:29:41.807Z,34.30
2022-08-26T06:32:09.869Z,34.70
2022-08-26T06:34:41.385Z,34.60
2022-08-26T06:37:09.908Z,34.60
2022-08-26T06:39:41.225Z,34.80
2022-08-26T06:42:11.106Z,34.90
2022-08-26T06:44:41.610Z,34.90
2022-08-26T06:47:12.824Z,34.90
2022-08-26T06:49:42.275Z,34.90
2022-08-26T06:52:12.534Z,34.90
2022-08-26T06:54:44.260Z,34.90
2022-08-26T06:57:13.149Z,35.00
2022-08-26T06:59:42.640Z,34.90
2022-08-26T07:02:13.436Z,34.90
2022-08-26T07:04:44.393Z,34.80
2022-08-26T07:07:16.559Z,34.90
2022-08-26T07:09:45.813Z,34.90
2022-08-26T07:12:13.909Z,35.10
2022-08-26T07:14:47.302Z,35.20
2022-08-26T07:17:16.361Z,35.20
2022-08-26T07:19:46.157Z,35.40
2022-08-26T07:22:14.429Z,35.40
2022-08-26T07:24:42.708Z,35.30
2022-08-26T07:27:14.293Z,35.30
2022-08-26T07:29:43.466Z,35.40
2022-08-26T07:32:13.836Z,35.50
2022-08-26T07:34:45.579Z,35.70
2022-08-26T07:37:15.149Z,35.70
2022-08-26T07:39:45.811Z,35.70
2022-08-26T07:42:16.662Z,35.80
2022-08-26T07:44:46.748Z,36.10
2022-08-26T07:47:24.667Z,36.00
2022-08-26T07:49:55.260Z,36.10
2022-08-26T07:52:27.340Z,36.00
2022-08-26T07:54:56.237Z,35.90
2022-08-26T07:57:24.658Z,36.00
2022-08-26T08:00:16.812Z,36.00
2022-08-26T08:03:05.681Z,36.00
2022-08-26T08:05:34.647Z,36.00
2022-08-26T08:08:27.368Z,36.10
2022-08-26T08:10:55.194Z,35.90
2022-08-26T08:13:24.282Z,35.90
2022-08-26T08:15:52.402Z,36.10
2022-08-26T08:18:23.068Z,36.30
2022-08-26T08:20:59.305Z,36.20
2022-08-26T08:23:34.451Z,36.50
2022-08-26T08:26:03.541Z,36.60
2022-08-26T08:28:31.754Z,36.80
2022-08-26T08:31:02.077Z,36.60
2022-08-26T08:33:31.566Z,36.40
2022-08-26T08:36:01.454Z,36.60
2022-08-26T08:38:31.094Z,36.70
2022-08-26T08:41:00.916Z,36.80
2022-08-26T08:43:40.531Z,36.60
2022-08-26T08:46:13.154Z,36.80
2022-08-26T08:48:44.461Z,36.90
2022-08-26T08:51:21.767Z,37.00
2022-08-26T08:53:54.727Z,37.10
2022-08-26T08:56:29.582Z,37.30
2022-08-26T08:59:04.027Z,37.40
2022-08-26T09:01:44.949Z,37.60
2022-08-26T09:04:29.519Z,37.50
2022-08-26T09:07:01.250Z,37.50
2022-08-26T09:09:37.102Z,37.60
2022-08-26T09:12:12.719Z,37.60
2022-08-26T09:14:41.544Z,37.70
2022-08-26T09:17:19.957Z,37.60
2022-08-26T09:19:52.227Z,37.80
2022-08-26T09:22:31.380Z,37.50
2022-08-26T09:24:59.741Z,37.80
2022-08-26T09:27:43.706Z,37.80
2022-08-26T09:30:14.539Z,37.90
2022-08-26T09:32:44.830Z,37.90
2022-08-26T09:35:27.962Z,38.00
2022-08-26T09:37:56.746Z,38.10
2022-08-26T09:40:29.984Z,38.20
2022-08-26T09:43:15.759Z,38.10
2022-08-26T09:45:50.616Z,38.40
2022-08-26T09:48:32.348Z,38.10
2022-08-26T09:51:05.690Z,38.40
2022-08-26T09:53:37.572Z,38.50
2022-08-26T09:56:17.050Z,38.50
2022-08-26T09:58:48.976Z,38.50
2022-08-26T10:01:30.213Z,38.50
2022-08-26T10:04:07.636Z,38.70
2022-08-26T10:06:41.820Z,38.60
2022-08-26T10:09:13.955Z,38.60
2022-08-26T10:11:47.642Z,38.50
2022-08-26T10:14:22.299Z,38.70
2022-08-26T10:16:56.461Z,38.60
2022-08-26T10:19:29.301Z,38.50
2022-08-26T10:22:19.580Z,38.40
2022-08-26T10:24:54.945Z,38.30
2022-08-26T10:27:41.462Z,38.50
2022-08-26T10:30:22.685Z,38.60
2022-08-26T10:32:55.716Z,38.70
2022-08-26T10:35:24.640Z,38.70
2022-08-26T10:37:57.471Z,38.80
2022-08-26T10:40:28.459Z,38.80
2022-08-26T10:43:07.054Z,38.80
2022-08-26T10:45:44.554Z,38.90
2022-08-26T10:48:17.503Z,38.70
2022-08-26T10:50:48.474Z,38.60
2022-08-26T10:53:25.161Z,38.60
2022-08-26T10:56:01.001Z,38.50
2022-08-26T10:58:44.520Z,38.40
2022-08-26T11:01:36.039Z,38.30
2022-08-26T11:04:19.019Z,38.40
2022-08-26T11:06:51.512Z,38.60
2022-08-26T11:09:52.349Z,38.50
2022-08-26T11:12:53.340Z,38.60
2022-08-26T11:16:08.437Z,38.60
2022-08-26T11:18:48.744Z,38.60
2022-08-26T11:21:49.493Z,38.50
2022-08-26T11:24:58.857Z,38.30
2022-08-26T11:28:04.847Z,38.60
2022-08-26T11:30:57.815Z,38.30
2022-08-26T11:33:59.466Z,38.50
2022-08-26T11:36:57.705Z,38.60
2022-08-26T11:39:30.283Z,38.60
2022-08-26T11:42:00.988Z,38.60
2022-08-26T11:44:40.062Z,38.50
2022-08-26T11:47:11.480Z,38.40
2022-08-26T11:49:45.486Z,38.40
2022-08-26T11:52:20.853Z,38.50
2022-08-26T11:55:06.743Z,38.70
2022-08-26T11:57:36.945Z,38.70
2022-08-26T12:00:10.607Z,38.60
2022-08-26T12:02:41.592Z,38.50
2022-08-26T12:05:13.775Z,38.50
2022-08-26T12:07:42.519Z,38.70
2022-08-26T12:10:25.519Z,38.50
2022-08-26T12:13:00.066Z,38.60
2022-08-26T12:15:29.564Z,38.70
2022-08-26T12:18:00.313Z,38.90
2022-08-26T12:20:49.087Z,38.70
2022-08-26T12:23:31.287Z,38.60
2022-08-26T12:26:08.217Z,38.80
2022-08-26T12:28:44.679Z,38.80
2022-08-26T12:31:20.386Z,38.90
2022-08-26T12:33:49.693Z,39.10
2022-08-26T12:36:27.560Z,39.00
2022-08-26T12:38:58.401Z,39.10
2022-08-26T12:41:49.142Z,39.10
2022-08-26T12:44:34.628Z,39.10
2022-08-26T12:47:09.223Z,39.10
2022-08-26T12:49:39.469Z,39.00
2022-08-26T12:52:29.814Z,39.00
2022-08-26T12:55:00.112Z,39.10
2022-08-26T12:57:32.026Z,38.90
2022-08-26T13:00:33.038Z,39.10
2022-08-26T13:03:02.546Z,39.00
2022-08-26T13:05:35.077Z,38.90
2022-08-26T13:08:15.665Z,39.00
2022-08-26T13:10:46.297Z,39.10
2022-08-26T13:13:14.614Z,39.10
2022-08-26T13:15:42.693Z,39.20
2022-08-26T13:18:10.793Z,39.10
2022-08-26T13:20:44.791Z,39.30
2022-08-26T13:23:15.070Z,39.10
2022-08-26T13:25:43.382Z,39.10
2022-08-26T13:28:11.504Z,39.30
2022-08-26T13:30:49.685Z,39.40
2022-08-26T13:33:19.336Z,39.60
2022-08-26T13:35:48.414Z,39.40
2022-08-26T13:38:20.564Z,39.50
2022-08-26T13:41:02.707Z,39.60
2022-08-26T13:43:31.519Z,39.40
2022-08-26T13:46:01.474Z,39.50
2022-08-26T13:48:30.178Z,39.40
2022-08-26T13:51:02.638Z,39.40
2022-08-26T13:53:37.551Z,39.30
2022-08-26T13:56:11.060Z,39.30
2022-08-26T13:58:39.378Z,39.40
2022-08-26T14:01:07.524Z,39.40
2022-08-26T14:03:35.827Z,39.50
2022-08-26T14:06:04.113Z,39.40
2022-08-26T14:08:32.661Z,39.30
2022-08-26T14:11:02.129Z,39.20
2022-08-26T14:13:30.413Z,39.20
2022-08-26T14:16:01.352Z,39.20
2022-08-26T14:18:33.424Z,39.10
2022-08-26T14:21:01.717Z,39.00
2022-08-26T14:23:29.765Z,39.30
2022-08-26T14:25:57.792Z,39.40
2022-08-26T14:28:28.370Z,39.30
2022-08-26T14:30:59.249Z,39.20
2022-08-26T14:33:32.471Z,39.10
2022-08-26T14:36:14.543Z,39.10
2022-08-26T14:38:42.604Z,39.20
2022-08-26T14:41:11.285Z,39.10
2022-08-26T14:43:47.057Z,39.30
2022-08-26T14:46:15.812Z,39.30
2022-08-26T14:48:44.077Z,39.60
2022-08-26T14:51:12.331Z,39.50
2022-08-26T14:54:00.609Z,39.60
2022-08-26T14:56:31.737Z,39.70
2022-08-26T14:59:01.441Z,39.80
2022-08-26T15:01:31.085Z,39.80
2022-08-26T15:03:59.712Z,39.70
2022-08-26T15:06:28.099Z,39.90
2022-08-26T15:08:56.333Z,40.00
2022-08-26T15:11:24.402Z,39.90
2022-08-26T15:13:53.024Z,40.00
2022-08-26T15:16:22.801Z,40.00
2022-08-26T15:18:51.485Z,40.00
2022-08-26T15:21:20.535Z,40.00
2022-08-26T15:23:49.637Z,39.80
2022-08-26T15:26:18.460Z,39.90
2022-08-26T15:28:49.464Z,39.70
2022-08-26T15:31:18.420Z,39.80
2022-08-26T15:33:48.321Z,39.60
2022-08-26T15:36:16.421Z,39.40
2022-08-26T15:38:44.960Z,39.50
2022-08-26T15:41:14.318Z,39.50
2022-08-26T15:43:42.367Z,39.60
2022-08-26T15:46:12.004Z,39.50
2022-08-26T15:48:40.545Z,39.60
2022-08-26T15:51:21.651Z,39.70
2022-08-26T15:53:50.839Z,39.70
2022-08-26T15:56:19.038Z,39.60
2022-08-26T15:58:47.132Z,39.70
2022-08-26T16:01:18.152Z,39.80
2022-08-26T16:03:56.661Z,39.70
2022-08-26T16:06:28.389Z,39.70
2022-08-26T16:08:57.467Z,39.70
2022-08-26T16:11:26.486Z,39.80
2022-08-26T16:13:54.629Z,39.80
2022-08-26T16:16:23.199Z,39.50
2022-08-26T16:18:51.632Z,39.40
2022-08-26T16:21:21.852Z,39.20
2022-08-26T16:23:51.970Z,39.20
2022-08-26T16:26:22.676Z,39.10
2022-08-26T16:28:50.826Z,38.90
2022-08-26T16:31:19.555Z,38.80
2022-08-26T16:33:47.641Z,38.80
2022-08-26T16:36:16.335Z,38.80
2022-08-26T16:38:50.026Z,38.70
2022-08-26T16:41:19.509Z,38.70
2022-08-26T16:43:47.645Z,38.60
2022-08-26T16:46:16.505Z,38.40
2022-08-26T16:48:45.304Z,38.20
2022-08-26T16:51:19.056Z,38.10
2022-08-26T16:53:47.690Z,38.10
2022-08-26T16:56:18.537Z,38.10
2022-08-26T16:58:48.321Z,38.00
2022-08-26T17:01:16.609Z,37.90
2022-08-26T17:03:45.119Z,37.80
2022-08-26T17:06:13.273Z,37.70
2022-08-26T17:08:42.732Z,37.60
2022-08-26T17:11:13.685Z,37.60
2022-08-26T17:13:41.771Z,37.50
2022-08-26T17:16:13.285Z,37.30
2022-08-26T17:18:43.112Z,37.30
2022-08-26T17:21:13.642Z,37.30
2022-08-26T17:23:43.179Z,37.20
2022-08-26T17:26:12.715Z,37.20
2022-08-26T17:28:43.020Z,37.00
2022-08-26T17:31:13.935Z,36.90
2022-08-26T17:33:42.177Z,36.90
2022-08-26T17:36:10.427Z,37.00
2022-08-26T17:38:38.842Z,36.90
2022-08-26T17:41:09.155Z,36.90
2022-08-26T17:43:38.323Z,37.00
2022-08-26T17:46:08.830Z,36.90
2022-08-26T17:48:40.288Z,36.90
2022-08-26T17:51:10.017Z,36.90
2022-08-26T17:53:38.220Z,36.80
2022-08-26T17:56:08.146Z,36.70
2022-08-26T17:58:38.736Z,36.70
2022-08-26T18:01:08.059Z,36.70
2022-08-26T18:03:36.460Z,36.50
2022-08-26T18:06:10.268Z,36.50
2022-08-26T18:08:39.152Z,36.50
2022-08-26T18:11:10.006Z,36.40
2022-08-26T18:13:38.788Z,36.50
2022-08-26T18:16:19.670Z,36.50
2022-08-26T18:18:51.772Z,36.40
2022-08-26T18:21:23.157Z,36.50
2022-08-26T18:23:52.611Z,36.50
2022-08-26T18:26:23.205Z,36.40
2022-08-26T18:28:51.225Z,36.30
2022-08-26T18:31:19.445Z,36.30
2022-08-26T18:33:47.741Z,36.30
2022-08-26T18:36:18.421Z,36.20
2022-08-26T18:38:50.372Z,36.20
2022-08-26T18:41:20.793Z,36.20
2022-08-26T18:43:50.420Z,36.30
2022-08-26T18:46:20.799Z,36.20
2022-08-26T18:48:50.772Z,36.20
2022-08-26T18:51:21.238Z,36.10
2022-08-26T18:53:51.248Z,36.10
2022-08-26T18:56:19.961Z,36.20
2022-08-26T18:58:48.389Z,36.20
2022-08-26T19:01:16.918Z,36.30
2022-08-26T19:03:45.730Z,36.30
2022-08-26T19:06:18.157Z,36.00
2022-08-26T19:08:49.803Z,35.50
2022-08-26T19:11:31.767Z,35.40
2022-08-26T19:14:01.315Z,34.80
2022-08-26T19:16:31.595Z,34.70
2022-08-26T19:19:01.765Z,34.60
2022-08-26T19:21:30.860Z,34.30
2022-08-26T19:24:00.238Z,34.10
2022-08-26T19:26:30.817Z,34.10
2022-08-26T19:28:59.535Z,33.80
2022-08-26T19:31:28.177Z,33.90
2022-08-26T19:33:57.893Z,33.50
2022-08-26T19:36:26.813Z,33.40
2022-08-26T19:38:56.131Z,33.40
2022-08-26T19:41:36.590Z,33.20
2022-08-26T19:44:10.032Z,32.90
2022-08-26T19:49:12.552Z,32.60
2022-08-26T19:51:40.575Z,32.30
2022-08-26T19:54:10.199Z,32.10
2022-08-26T19:56:38.343Z,32.00
2022-08-26T19:59:07.754Z,31.90
2022-08-26T20:01:35.981Z,32.00
2022-08-26T20:04:04.789Z,31.80
2022-08-26T20:06:32.806Z,31.90
2022-08-26T20:09:00.870Z,31.90
2022-08-26T20:11:29.760Z,31.70
2022-08-26T20:13:57.803Z,31.80
2022-08-26T20:16:27.220Z,31.80
2022-08-26T20:19:12.839Z,31.60
2022-08-26T20:21:42.551Z,31.40
2022-08-26T20:24:14.213Z,31.20
2022-08-26T20:26:47.223Z,31.60
2022-08-26T20:29:17.455Z,31.50
2022-08-26T20:31:47.664Z,31.30
2022-08-26T20:34:18.423Z,31.40
2022-08-26T20:36:47.973Z,31.30
2022-08-26T20:39:17.822Z,31.50
2022-08-26T20:41:46.080Z,31.60
2022-08-26T20:44:14.690Z,31.50
2022-08-26T20:46:42.799Z,31.40
2022-08-26T20:49:13.332Z,31.70
2022-08-26T20:51:43.157Z,31.50
2022-08-26T20:54:13.158Z,31.00
2022-08-26T20:56:41.321Z,31.20
2022-08-26T20:59:09.845Z,31.00
2022-08-26T21:01:42.463Z,30.80
2022-08-26T21:04:14.189Z,30.70
2022-08-26T21:06:52.461Z,30.70
2022-08-26T21:09:25.714Z,31.00
2022-08-26T21:11:55.093Z,31.10
2022-08-26T21:14:25.947Z,31.00
2022-08-26T21:16:54.544Z,30.90
2022-08-26T21:19:24.058Z,30.80
2022-08-26T21:21:52.159Z,31.20
2022-08-26T21:24:22.414Z,30.90
2022-08-26T21:26:50.574Z,30.60
2022-08-26T21:29:18.706Z,30.70
2022-08-26T21:31:47.131Z,31.00
2022-08-26T21:34:17.445Z,30.80
2022-08-26T21:36:47.709Z,31.00
2022-08-26T21:39:16.407Z,30.90
2022-08-26T21:41:45.397Z,30.90
2022-08-26T21:44:14.810Z,30.90
2022-08-26T21:46:44.369Z,31.10
2022-08-26T21:49:15.898Z,31.10
2022-08-26T21:51:48.131Z,30.90
2022-08-26T21:54:18.056Z,31.00
2022-08-26T21:56:47.946Z,31.00
2022-08-26T21:59:18.523Z,31.00
2022-08-26T22:01:47.113Z,31.10
2022-08-26T22:04:15.344Z,31.20
2022-08-26T22:06:46.107Z,31.10
2022-08-26T22:09:17.206Z,31.30
2022-08-26T22:11:46.464Z,31.20
2022-08-26T22:14:15.675Z,31.20
2022-08-26T22:16:45.730Z,31.20
2022-08-26T22:19:19.906Z,31.20
2022-08-26T22:21:49.418Z,30.90
2022-08-26T22:24:19.330Z,30.80
2022-08-26T22:26:47.981Z,30.90
2022-08-26T22:29:16.343Z,30.60
2022-08-26T22:31:44.609Z,30.60
2022-08-26T22:34:15.692Z,30.60
2022-08-26T22:36:46.930Z,30.60
2022-08-26T22:39:17.159Z,30.70
2022-08-26T22:41:48.461Z,30.60
2022-08-26T22:44:17.104Z,30.30
2022-08-26T22:46:45.663Z,30.40
2022-08-26T22:49:16.751Z,30.50
2022-08-26T22:51:45.649Z,30.50
2022-08-26T22:54:14.227Z,30.50
2022-08-26T22:56:42.633Z,30.50
2022-08-26T22:59:13.196Z,30.30
2022-08-26T23:01:43.979Z,30.30
2022-08-26T23:04:12.727Z,30.10
2022-08-26T23:06:43.055Z,30.10
2022-08-26T23:09:11.525Z,29.90
2022-08-26T23:11:43.213Z,30.40
2022-08-26T23:14:13.041Z,30.60
2022-08-26T23:16:42.743Z,30.60
2022-08-26T23:19:12.155Z,30.60
2022-08-26T23:21:40.829Z,30.90
2022-08-26T23:24:09.494Z,30.90
2022-08-26T23:26:39.111Z,30.60
2022-08-26T23:29:09.422Z,30.80
2022-08-26T23:31:40.225Z,30.90
2022-08-26T23:34:25.636Z,30.50
2022-08-26T23:36:53.944Z,30.60
2022-08-26T23:39:25.451Z,30.40
2022-08-26T23:41:53.617Z,30.50
2022-08-26T23:44:22.354Z,30.50
2022-08-26T23:46:51.712Z,30.40
2022-08-26T23:49:20.072Z,30.40
2022-08-26T23:52:05.578Z,30.10
2022-08-26T23:54:33.813Z,30.00
2022-08-26T23:57:02.129Z,30.20
2022-08-26T23:59:30.335Z,30.10
